F/V Mare Liberum — FVHW — position and weather

sailwx.info

Track history (hours):
 
Tides and Currents Weather Stations Pressure Air Temp Water Temp Dewpoint Dewpoint Depression Visibility Wind Speed Wind Dir Waves Ship Positions

F/V Mare Liberum

Last reported at 2016-May-25 14:31 UTC. Time now 2016-May-25 15:00 UTC.
Position N 47°01' W 002°18'.

Length 21 m.

Type: Fishing. MMSI: 227426000.

Date/timePositionNaut miles runAvg speedWind from/ knotsBaromVisibWave heightAir tempDewpointWater temp
2016-May-25 14:31N 47°01' W 002°18'0 0.0
2016-May-25 13:31N 47°01' W 002°18'0 0.0
2016-May-25 12:30N 47°01' W 002°18'0 0.0
2016-May-25 11:30N 47°01' W 002°18'0 0.0
2016-May-25 10:32N 47°01' W 002°18'0 0.0
2016-May-25 09:33N 47°01' W 002°18'0 0.0
2016-May-25 08:33N 47°01' W 002°18'0 0.0
2016-May-25 07:33N 47°01' W 002°18'0 0.0
2016-May-25 06:33N 47°01' W 002°18'0 0.0
2016-May-25 05:33N 47°01' W 002°18'0 0.0
2016-May-25 04:33N 47°01' W 002°18'0 0.0
2016-May-25 03:33N 47°01' W 002°18'0 0.0
2016-May-25 02:33N 47°01' W 002°18'0 0.0
2016-May-25 01:34N 47°01' W 002°18'0 0.0
2016-May-25 00:31N 47°01' W 002°18'0 0.0
2016-May-24 23:33N 47°01' W 002°18'0 0.0
2016-May-24 22:32N 47°01' W 002°18'0 0.0
2016-May-24 21:33N 47°01' W 002°18'0 0.0
2016-May-24 20:33N 47°01' W 002°18'0 0.0
2016-May-24 19:32N 47°01' W 002°18'0 0.0
2016-May-24 18:33N 47°01' W 002°18'0 0.0
2016-May-24 17:33N 47°01' W 002°18'0 0.0
2016-May-24 16:29N 47°01' W 002°18'0 0.0
2016-May-24 15:29N 47°01' W 002°18'0 0.0
2016-May-24 14:31N 47°01' W 002°18'0 0.0
2016-May-24 13:33N 47°01' W 002°18'0 0.0
2016-May-24 12:29N 47°01' W 002°18'0 0.0
2016-May-24 11:30N 47°01' W 002°18'0 0.0
2016-May-24 10:29N 47°01' W 002°18'0 0.0
2016-May-24 09:33N 47°01' W 002°18'0 0.0
2016-May-24 08:29N 47°01' W 002°18'0 0.0
2016-May-24 07:33N 47°01' W 002°18'0 0.0
2016-May-24 06:33N 47°01' W 002°18'0 0.0
2016-May-24 05:33N 47°01' W 002°18'0 0.0
2016-May-24 04:33N 47°01' W 002°18'0 0.1
2016-May-24 03:33N 47°02' W 002°18'6 5.7
2016-May-24 02:32N 46°59' W 002°26'  
2016-May-21 21:28N 46°43' W 002°29'7 8.0
2016-May-21 20:33N 46°51' W 002°26'7 6.9
2016-May-21 19:33N 46°57' W 002°24'6 6.2
2016-May-21 18:33N 47°02' W 002°18'0 0.5
2016-May-21 17:30N 47°01' W 002°18'0 0.1
2016-May-21 16:33N 47°02' W 002°18'0 0.0
2016-May-21 15:33N 47°01' W 002°18'0 0.0
2016-May-21 14:27N 47°02' W 002°18'0 0.0
2016-May-21 13:32N 47°02' W 002°18'0 0.0
2016-May-21 12:33N 47°01' W 002°18'4 4.3
2016-May-21 11:31N 46°59' W 002°23'8 7.9
2016-May-21 10:31N 46°51' W 002°27'9 8.4
2016-May-21 09:26N 46°42' W 002°30'7 8.2
2016-May-21 08:33N 46°35' W 002°33'9 7.9
2016-May-21 07:27N 46°27' W 002°36'6 6.6
2016-May-21 06:32N 46°21' W 002°38'0 0.4
2016-May-21 05:25N 46°21' W 002°37'1 0.6
2016-May-21 04:08N 46°22' W 002°37'1 1.0
2016-May-21 03:27N 46°23' W 002°37'2 1.9
2016-May-21 02:31N 46°24' W 002°35'1 0.6
2016-May-21 01:33N 46°24' W 002°36'1 0.7
2016-May-21 00:31N 46°23' W 002°37'1 0.8
2016-May-20 23:33N 46°22' W 002°37'1 0.8
2016-May-20 22:33N 46°22' W 002°38'0 0.5
2016-May-20 21:33N 46°21' W 002°38'1 1.4
2016-May-20 20:29N 46°22' W 002°37'24 8.2
2016-May-20 17:33N 46°26' W 002°02'9 9.1
2016-May-20 16:33N 46°28' W 001°49'2 2.2
2016-May-20 15:33N 46°30' W 001°47'0 0.0
2016-May-20 14:33N 46°30' W 001°47'0 0.0
2016-May-20 13:34N 46°30' W 001°47'0 0.1
2016-May-20 12:33N 46°30' W 001°47'0 0.0
2016-May-20 11:33N 46°30' W 001°47'0 0.0
2016-May-20 10:33N 46°30' W 001°47'0 0.0
2016-May-20 09:33N 46°30' W 001°47'0 0.0
2016-May-20 08:33N 46°30' W 001°47'0 0.0
2016-May-20 07:33N 46°30' W 001°47'0 0.0
2016-May-20 06:34N 46°30' W 001°47'0 0.0
2016-May-20 05:33N 46°30' W 001°47'0 0.0
2016-May-20 04:33N 46°30' W 001°47'0 0.0
2016-May-20 03:33N 46°30' W 001°47'0 0.0
2016-May-20 02:33N 46°30' W 001°47'0 0.0
2016-May-20 01:33N 46°30' W 001°47'0 0.0
2016-May-20 00:34N 46°30' W 001°47'0 0.0
2016-May-19 23:33N 46°30' W 001°47'0 0.0
2016-May-19 22:33N 46°30' W 001°47'0 0.0
2016-May-19 21:33N 46°30' W 001°47'0 0.0
2016-May-19 20:33N 46°30' W 001°47'0 0.0
2016-May-19 19:33N 46°30' W 001°47'0 0.0
2016-May-19 18:34N 46°30' W 001°47'0 0.0
2016-May-19 17:33N 46°30' W 001°47'0 0.0
2016-May-19 16:33N 46°30' W 001°47'0 0.0
2016-May-19 15:33N 46°30' W 001°47'0 0.0
2016-May-19 14:33N 46°30' W 001°47'  
Track history (hours):
 
Tides and Currents Weather Stations Pressure Air Temp Water Temp Dewpoint Dewpoint Depression Visibility Wind Speed Wind Dir Waves Ship Positions

F/V Mare Liberum

Last reported at 2016-May-25 14:31 UTC. Time now 2016-May-25 15:00 UTC.
Position N 47°01' W 002°18'.

Length 21 m.

Type: Fishing. MMSI: 227426000.

Date/timePositionNaut miles runAvg speedWind from/ knotsBaromVisibWave heightAir tempDewpointWater temp
2016-May-25 14:31N 47°01' W 002°18'0 0.0
2016-May-25 13:31N 47°01' W 002°18'0 0.0
2016-May-25 12:30N 47°01' W 002°18'0 0.0
2016-May-25 11:30N 47°01' W 002°18'0 0.0
2016-May-25 10:32N 47°01' W 002°18'0 0.0
2016-May-25 09:33N 47°01' W 002°18'0 0.0
2016-May-25 08:33N 47°01' W 002°18'0 0.0
2016-May-25 07:33N 47°01' W 002°18'0 0.0
2016-May-25 06:33N 47°01' W 002°18'0 0.0
2016-May-25 05:33N 47°01' W 002°18'0 0.0
2016-May-25 04:33N 47°01' W 002°18'0 0.0
2016-May-25 03:33N 47°01' W 002°18'0 0.0
2016-May-25 02:33N 47°01' W 002°18'0 0.0
2016-May-25 01:34N 47°01' W 002°18'0 0.0
2016-May-25 00:31N 47°01' W 002°18'0 0.0
2016-May-24 23:33N 47°01' W 002°18'0 0.0
2016-May-24 22:32N 47°01' W 002°18'0 0.0
2016-May-24 21:33N 47°01' W 002°18'0 0.0
2016-May-24 20:33N 47°01' W 002°18'0 0.0
2016-May-24 19:32N 47°01' W 002°18'0 0.0
2016-May-24 18:33N 47°01' W 002°18'0 0.0
2016-May-24 17:33N 47°01' W 002°18'0 0.0
2016-May-24 16:29N 47°01' W 002°18'0 0.0
2016-May-24 15:29N 47°01' W 002°18'0 0.0
2016-May-24 14:31N 47°01' W 002°18'0 0.0
2016-May-24 13:33N 47°01' W 002°18'0 0.0
2016-May-24 12:29N 47°01' W 002°18'0 0.0
2016-May-24 11:30N 47°01' W 002°18'0 0.0
2016-May-24 10:29N 47°01' W 002°18'0 0.0
2016-May-24 09:33N 47°01' W 002°18'0 0.0
2016-May-24 08:29N 47°01' W 002°18'0 0.0
2016-May-24 07:33N 47°01' W 002°18'0 0.0
2016-May-24 06:33N 47°01' W 002°18'0 0.0
2016-May-24 05:33N 47°01' W 002°18'0 0.0
2016-May-24 04:33N 47°01' W 002°18'0 0.1
2016-May-24 03:33N 47°02' W 002°18'6 5.7
2016-May-24 02:32N 46°59' W 002°26'  
2016-May-21 21:28N 46°43' W 002°29'7 8.0
2016-May-21 20:33N 46°51' W 002°26'7 6.9
2016-May-21 19:33N 46°57' W 002°24'6 6.2
2016-May-21 18:33N 47°02' W 002°18'0 0.5
2016-May-21 17:30N 47°01' W 002°18'0 0.1
2016-May-21 16:33N 47°02' W 002°18'0 0.0
2016-May-21 15:33N 47°01' W 002°18'0 0.0
2016-May-21 14:27N 47°02' W 002°18'0 0.0
2016-May-21 13:32N 47°02' W 002°18'0 0.0
2016-May-21 12:33N 47°01' W 002°18'4 4.3
2016-May-21 11:31N 46°59' W 002°23'8 7.9
2016-May-21 10:31N 46°51' W 002°27'9 8.4
2016-May-21 09:26N 46°42' W 002°30'7 8.2
2016-May-21 08:33N 46°35' W 002°33'9 7.9
2016-May-21 07:27N 46°27' W 002°36'6 6.6
2016-May-21 06:32N 46°21' W 002°38'0 0.4
2016-May-21 05:25N 46°21' W 002°37'1 0.6
2016-May-21 04:08N 46°22' W 002°37'1 1.0
2016-May-21 03:27N 46°23' W 002°37'2 1.9
2016-May-21 02:31N 46°24' W 002°35'1 0.6
2016-May-21 01:33N 46°24' W 002°36'1 0.7
2016-May-21 00:31N 46°23' W 002°37'1 0.8
2016-May-20 23:33N 46°22' W 002°37'1 0.8
2016-May-20 22:33N 46°22' W 002°38'0 0.5
2016-May-20 21:33N 46°21' W 002°38'1 1.4
2016-May-20 20:29N 46°22' W 002°37'24 8.2
2016-May-20 17:33N 46°26' W 002°02'9 9.1
2016-May-20 16:33N 46°28' W 001°49'2 2.2
2016-May-20 15:33N 46°30' W 001°47'0 0.0
2016-May-20 14:33N 46°30' W 001°47'0 0.0
2016-May-20 13:34N 46°30' W 001°47'0 0.1
2016-May-20 12:33N 46°30' W 001°47'0 0.0
2016-May-20 11:33N 46°30' W 001°47'0 0.0
2016-May-20 10:33N 46°30' W 001°47'0 0.0
2016-May-20 09:33N 46°30' W 001°47'0 0.0
2016-May-20 08:33N 46°30' W 001°47'0 0.0
2016-May-20 07:33N 46°30' W 001°47'0 0.0
2016-May-20 06:34N 46°30' W 001°47'0 0.0
2016-May-20 05:33N 46°30' W 001°47'0 0.0
2016-May-20 04:33N 46°30' W 001°47'0 0.0
2016-May-20 03:33N 46°30' W 001°47'0 0.0
2016-May-20 02:33N 46°30' W 001°47'0 0.0
2016-May-20 01:33N 46°30' W 001°47'0 0.0
2016-May-20 00:34N 46°30' W 001°47'0 0.0
2016-May-19 23:33N 46°30' W 001°47'0 0.0
2016-May-19 22:33N 46°30' W 001°47'0 0.0
2016-May-19 21:33N 46°30' W 001°47'0 0.0
2016-May-19 20:33N 46°30' W 001°47'0 0.0
2016-May-19 19:33N 46°30' W 001°47'0 0.0
2016-May-19 18:34N 46°30' W 001°47'0 0.0
2016-May-19 17:33N 46°30' W 001°47'0 0.0
2016-May-19 16:33N 46°30' W 001°47'0 0.0
2016-May-19 15:33N 46°30' W 001°47'0 0.0
2016-May-19 14:33N 46°30' W 001°47'  

Dump ship's entire track history